Nearby METAR Reports

 

KSEE - San Diego/Santee, California, USA
Distance from station: E 4mi, 6km
Updated: Mon, 14-Jun-2021 12:55am PDT
Clear
Clear
 Wind from calm
Wind: Calm
Temperature: 63°F , 17°C
Dew Point: 54°F , 12°C
Humidity: 73%
Barometer: 29.91 inHg , 1012.9 hPa
Clouds: Clear
Visibility: 10 miles , 16 km
2021/06/14 07:55 KSEE 140755Z AUTO 00000KT 10SM CLR 17/12 A2991 RMK AO2
KMYF - San Diego/Mntgmy, California, USA
Distance from station: W 6mi, 10km
Updated: Mon, 14-Jun-2021 12:53am PDT
Clear
Clear
 Wind from N
Wind: N 3 mph , 6 km/h
Temperature: 63°F , 17°C
Dew Point: 57°F , 14°C
Humidity: 83%
Barometer: 29.92 inHg , 1013.2 hPa
Clouds: Clear
Visibility: 10 miles , 16 km
2021/06/14 07:53 KMYF 140753Z AUTO 35003KT 10SM CLR 17/14 A2992 RMK AO2 SLP127 T01720144 402780161
 
KNKX - Miramar Nas/San, California, USA
Distance from station: WNW 7mi, 11km
Updated: Mon, 14-Jun-2021 12:55am PDT
Clear
Clear
 Wind from NNW
Wind: NNW 5 mph , 7 km/h
Temperature: 61°F , 16°C
Dew Point: 57°F , 14°C
Humidity: 88%
Barometer: 29.92 inHg , 1013.2 hPa
Clouds: Clear
Visibility: 10 miles , 16 km
2021/06/14 07:55 KNKX 140755Z 33004KT 10SM CLR 16/14 A2992 RMK AO2 SLP125 T01610144 402670122 $
KSAN - San Diego, California, USA
Distance from station: WSW 11mi, 17km
Updated: Mon, 14-Jun-2021 12:51am PDT
Clear
Clear
 Wind from WNW
Wind: WNW 5 mph , 7 km/h
Temperature: 64°F , 18°C
Dew Point: 57°F , 14°C
Humidity: 78%
Barometer: 29.93 inHg , 1013.5 hPa
Clouds: Clear
Visibility: 10 miles , 16 km
2021/06/14 07:51 KSAN 140751Z 30004KT 10SM CLR 18/14 A2993 RMK AO2 SLP135 T01830144 402390178
 
KNZY - North Island Nas, California, USA
Distance from station: SW 13mi, 22km
Updated: Mon, 14-Jun-2021 12:52am PDT
Clear
Clear
 Wind from NW
Wind: NW 6 mph , 9 km/h
Temperature: 63°F , 17°C
Dew Point: 59°F , 15°C
Humidity: 88%
Barometer: 29.91 inHg , 1012.9 hPa
Clouds: Clear
Visibility: 10 miles , 16 km
2021/06/14 07:52 KNZY 140752Z AUTO 31005KT 10SM CLR 17/15 A2991 RMK AO2 SLP128 T01720150 402170150
KRNM - Ramona, California, USA
Distance from station: NNE 16mi, 26km
Updated: Mon, 14-Jun-2021 12:53am PDT
Clear
Clear
 Wind from ENE
Wind: ENE 3 mph , 6 km/h
Temperature: 55°F , 13°C
Dew Point: 46°F , 8°C
Humidity: 72%
Barometer: 29.94 inHg , 1013.9 hPa
Clouds: Clear
Visibility: 10 miles , 16 km
2021/06/14 07:53 KRNM 140753Z AUTO 07003KT 10SM CLR 13/08 A2994 RMK AO2 SLP122 T01280083 403390083
 
KSDM - San Diego/Brown, California, USA
Distance from station: S 16mi, 26km
Updated: Mon, 14-Jun-2021 12:53am PDT
Clear
Clear
 Wind from calm
Wind: Calm
Temperature: 61°F , 16°C
Dew Point: 54°F , 12°C
Humidity: 77%
Barometer: 29.92 inHg , 1013.2 hPa
Clouds: Clear
Visibility: 7 miles , 11 km
2021/06/14 07:53 KSDM 140753Z AUTO 00000KT 7SM CLR 16/12 A2992 RMK AO2 SLP126 T01560122 402670144
KNRS - Imperial Beach, California, USA
Distance from station: SSW 18mi, 29km
Updated: Sun, 13-Jun-2021 12:56am PDT
NOT Current
Clear
Clear
 
Barometer: 29.88 inHg , 1011.9 hPa
Clouds: Clear
Visibility: 9 miles , 14 km
2021/06/13 07:56 KNRS 130756Z AUTO 9SM CLR A2988 RMK AO2 SLP119 $
 
MMTJ - Tijuana Intl Arp, Mexico
Distance from station: S 20mi, 32km
Updated: Mon, 14-Jun-2021 12:40am PDT
Clear
Clear
 Wind from calm
Wind: Calm
Temperature: 61°F , 16°C
Dew Point: 59°F , 15°C
Humidity: 94%
Barometer: 29.95 inHg , 1014.2 hPa
Clouds: Clear
Visibility: 8 miles , 13 km
2021/06/14 07:40 MMTJ 140740Z 00000KT 8SM SKC 16/15 A2995
KCRQ - Carlsbad, California, USA
Distance from station: NW 26mi, 43km
Updated: Mon, 14-Jun-2021 12:53am PDT
Overcast
Overcast
 Wind from calm
Wind: Calm
Temperature: 61°F , 16°C
Dew Point: 57°F , 14°C
Humidity: 88%
Barometer: 29.91 inHg , 1012.9 hPa
Clouds: Overcast
Visibility: 8 miles , 13 km
Cloud details: Overcast 600 ft
2021/06/14 07:53 KCRQ 140753Z AUTO 00000KT 8SM OVC006 16/14 A2991 RMK AO2 SLP127 T01610144 402110150
 
KOKB - Oceanside, California, USA
Distance from station: NW 33mi, 54km
Updated: Mon, 14-Jun-2021 12:52am PDT
Overcast
Overcast
 Wind from calm
Wind: Calm
Temperature: 63°F , 17°C
Dew Point: 61°F , 16°C
Humidity: 94%
Barometer: 29.92 inHg , 1013.2 hPa
Clouds: Overcast
Visibility: 8 miles , 13 km
Cloud details: Overcast 600 ft
2021/06/14 07:52 KOKB 140752Z AUTO 00000KT 8SM OVC006 17/16 A2992 RMK AO2 SLP130 T01670156 402330111
KCZZ - Campo, California, USA
Distance from station: ESE 35mi, 56km
Updated: Mon, 26-Oct-2020 8:52am PDT
NOT Current

 Wind from NE
Wind: NE 14 mph , 22 km/h, Gust: 20 mph , 31 km/h
Temperature: 48°F , 9°C
Wind Chill: 42°F , 6°C
Dew Point: 27°F , -3°C
Humidity: 43%
Barometer: 29.99 inHg , 1015.6 hPa
2020/10/26 15:52 KCZZ 261552Z AUTO 05012G17KT 09/M03 A2999 RMK AO1 SLP140 T00891028
 
KNFG - Camp Pendleton, California, USA
Distance from station: NNW 37mi, 59km
Updated: Mon, 14-Jun-2021 12:55am PDT
Overcast
Overcast
 Wind from calm
Wind: Calm
Temperature: 61°F , 16°C
Dew Point: 55°F , 13°C
Humidity: 83%
Barometer: 29.93 inHg , 1013.5 hPa
Clouds: Overcast
Visibility: 8 miles , 13 km
Cloud details: Overcast 500 ft
2021/06/14 07:55 KNFG 140755Z AUTO 00000KT 8SM OVC005 16/13 A2993 RMK AO2 SLP133 T01560128 402720122 $
KRIV - Riverside/March, California, USA
Distance from station: N 74mi, 119km
Updated: Mon, 14-Jun-2021 12:58am PDT
Clear
Clear
 Wind from WNW
Wind: WNW 3 mph , 6 km/h
Temperature: 64°F , 18°C
Dew Point: 39°F , 4°C
Humidity: 40%
Barometer: 29.94 inHg , 1013.9 hPa
Clouds: Clear
Visibility: 10 miles , 16 km
2021/06/14 07:58 KRIV 140758Z AUTO 30003KT 10SM CLR 18/04 A2994 RMK AO2 SLP125 T01770043 403520108
 
KTRM - Thermal/Palm Spg, California, USA
Distance from station: NE 75mi, 121km
Updated: Mon, 14-Jun-2021 12:52am PDT
Clear
Clear
 Wind from N
Wind: N 6 mph , 9 km/h
Temperature: 82°F , 28°C
Dew Point: 45°F , 7°C
Humidity: 26%
Barometer: 29.74 inHg , 1007.1 hPa
Clouds: Clear
Visibility: 10 miles , 16 km
2021/06/14 07:52 KTRM 140752Z AUTO 01005KT 10SM CLR 28/07 A2974 RMK AO2 SLP075 T02830067 404390261
KPSP - Palm Springs, California, USA
Distance from station: NNE 76mi, 122km
Updated: Mon, 14-Jun-2021 12:53am PDT
Clear
Clear
 Wind from SE
Wind: SE 5 mph , 7 km/h
Temperature: 86°F , 30°C
Dew Point: 43°F , 6°C
Humidity: 22%
Barometer: 29.79 inHg , 1008.8 hPa
Clouds: Clear
Visibility: 10 miles , 16 km
2021/06/14 07:53 KPSP 140753Z AUTO 14004KT 10SM CLR 30/06 A2979 RMK AO2 SLP084 T03000061 404440244 $
 
KSNA - Costa Mesa, California, USA
Distance from station: NW 76mi, 123km
Updated: Mon, 14-Jun-2021 12:53am PDT
Clear
Clear
 Wind from S
Wind: S 3 mph , 6 km/h
Temperature: 64°F , 18°C
Dew Point: 59°F , 15°C
Humidity: 83%
Barometer: 29.91 inHg , 1012.9 hPa
Clouds: Clear
Visibility: 10 miles , 16 km
2021/06/14 07:53 KSNA 140753Z AUTO 19003KT 10SM CLR 18/15 A2991 RMK AO2 SLP128 T01780150 402610167
KNJK - El Centro Naf, California, USA
Distance from station: E 79mi, 127km
Updated: Sat, 12-Jun-2021 3:56pm PDT
NOT Current
Clear
Clear
 Wind from varies
Wind: varies 5 mph , 7 km/h
Temperature: 108°F , 42°C
Dew Point: 72°F , 22°C
Humidity: 32%
Barometer: 29.67 inHg , 1004.7 hPa
Clouds: Clear
Visibility: 10 miles , 16 km
2021/06/12 22:56 KNJK 122256Z AUTO VRB04KT 10SM CLR 42/22 A2967 RMK AO2 SLP063 T04170217 $
 
KAJO - Corona Muni, California, USA
Distance from station: NNW 82mi, 132km
Updated: Mon, 14-Jun-2021 12:56am PDT
Clear
Clear
 Wind from W
Wind: W 3 mph , 6 km/h
Temperature: 64°F , 18°C
Dew Point: 55°F , 13°C
Humidity: 73%
Barometer: 29.93 inHg , 1013.5 hPa
Clouds: Clear
Visibility: 10 miles , 16 km
2021/06/14 07:56 KAJO 140756Z AUTO 26003KT 10SM CLR 18/13 A2993 RMK AO2 SLP126 T01780128 403330139